sensor_id;sensor_type;location;lat;lon;timestamp;P1;durP1;ratioP1;P2;durP2;ratioP2
49314;SDS011;36672;50.710;12.498;2023-01-10T00:00:34;1.35;;;0.95;;
49314;SDS011;36672;50.710;12.498;2023-01-10T00:03:01;1.08;;;0.90;;
49314;SDS011;36672;50.710;12.498;2023-01-10T00:05:36;2.67;;;0.90;;
49314;SDS011;36672;50.710;12.498;2023-01-10T00:08:03;1.45;;;0.90;;
49314;SDS011;36672;50.710;12.498;2023-01-10T00:10:30;1.00;;;0.90;;
49314;SDS011;36672;50.710;12.498;2023-01-10T00:12:57;1.10;;;0.90;;
49314;SDS011;36672;50.710;12.498;2023-01-10T00:15:41;2.17;;;1.17;;
49314;SDS011;36672;50.710;12.498;2023-01-10T00:18:07;1.23;;;0.95;;
49314;SDS011;36672;50.710;12.498;2023-01-10T00:20:33;1.33;;;0.82;;
49314;SDS011;36672;50.710;12.498;2023-01-10T00:22:59;1.02;;;0.75;;
49314;SDS011;36672;50.710;12.498;2023-01-10T00:25:24;1.27;;;0.88;;
49314;SDS011;36672;50.710;12.498;2023-01-10T00:27:52;1.35;;;0.90;;
49314;SDS011;36672;50.710;12.498;2023-01-10T00:30:25;3.25;;;1.05;;
49314;SDS011;36672;50.710;12.498;2023-01-10T00:32:51;2.05;;;0.90;;
49314;SDS011;36672;50.710;12.498;2023-01-10T00:35:17;1.33;;;0.90;;
49314;SDS011;36672;50.710;12.498;2023-01-10T00:37:42;1.58;;;1.00;;
49314;SDS011;36672;50.710;12.498;2023-01-10T00:40:08;1.35;;;1.05;;
49314;SDS011;36672;50.710;12.498;2023-01-10T00:42:36;1.15;;;0.77;;
49314;SDS011;36672;50.710;12.498;2023-01-10T00:45:20;1.10;;;1.00;;
49314;SDS011;36672;50.710;12.498;2023-01-10T00:47:48;1.65;;;1.05;;
49314;SDS011;36672;50.710;12.498;2023-01-10T00:50:14;2.33;;;1.15;;
49314;SDS011;36672;50.710;12.498;2023-01-10T00:52:39;1.38;;;1.00;;
49314;SDS011;36672;50.710;12.498;2023-01-10T00:55:05;1.50;;;1.02;;
49314;SDS011;36672;50.710;12.498;2023-01-10T00:57:30;3.72;;;1.20;;
49314;SDS011;36672;50.710;12.498;2023-01-10T00:59:56;3.50;;;1.20;;
49314;SDS011;36672;50.710;12.498;2023-01-10T01:02:21;2.45;;;1.02;;
49314;SDS011;36672;50.710;12.498;2023-01-10T01:04:47;1.88;;;1.20;;
49314;SDS011;36672;50.710;12.498;2023-01-10T01:07:12;2.08;;;1.30;;
49314;SDS011;36672;50.710;12.498;2023-01-10T01:09:37;1.75;;;1.10;;
49314;SDS011;36672;50.710;12.498;2023-01-10T01:12:23;1.83;;;1.10;;
49314;SDS011;36672;50.710;12.498;2023-01-10T01:14:48;3.47;;;1.23;;
49314;SDS011;36672;50.710;12.498;2023-01-10T01:17:13;4.07;;;1.45;;
49314;SDS011;36672;50.710;12.498;2023-01-10T01:19:39;1.48;;;1.20;;
49314;SDS011;36672;50.710;12.498;2023-01-10T01:22:05;1.63;;;1.15;;
49314;SDS011;36672;50.710;12.498;2023-01-10T01:24:30;2.45;;;1.35;;
49314;SDS011;36672;50.710;12.498;2023-01-10T01:26:55;1.98;;;1.27;;
49314;SDS011;36672;50.710;12.498;2023-01-10T01:29:20;1.88;;;1.30;;
49314;SDS011;36672;50.710;12.498;2023-01-10T01:31:46;2.08;;;1.40;;
49314;SDS011;36672;50.710;12.498;2023-01-10T01:34:11;5.30;;;1.52;;
49314;SDS011;36672;50.710;12.498;2023-01-10T01:36:36;1.67;;;1.20;;
49314;SDS011;36672;50.710;12.498;2023-01-10T01:39:02;2.08;;;1.30;;
49314;SDS011;36672;50.710;12.498;2023-01-10T01:41:28;3.53;;;1.40;;
49314;SDS011;36672;50.710;12.498;2023-01-10T01:46:41;5.10;;;1.30;;
49314;SDS011;36672;50.710;12.498;2023-01-10T01:49:25;2.92;;;1.60;;
49314;SDS011;36672;50.710;12.498;2023-01-10T01:51:51;2.50;;;1.30;;
49314;SDS011;36672;50.710;12.498;2023-01-10T01:54:23;2.50;;;1.50;;
49314;SDS011;36672;50.710;12.498;2023-01-10T01:56:51;3.60;;;1.60;;
49314;SDS011;36672;50.710;12.498;2023-01-10T01:59:27;3.15;;;1.40;;
49314;SDS011;36672;50.710;12.498;2023-01-10T02:01:59;3.17;;;1.10;;
49314;SDS011;36672;50.710;12.498;2023-01-10T02:04:31;5.10;;;1.70;;
49314;SDS011;36672;50.710;12.498;2023-01-10T02:07:18;2.13;;;1.52;;
49314;SDS011;36672;50.710;12.498;2023-01-10T02:09:53;2.80;;;1.42;;
49314;SDS011;36672;50.710;12.498;2023-01-10T02:12:23;2.35;;;1.40;;
49314;SDS011;36672;50.710;12.498;2023-01-10T02:14:51;2.30;;;1.60;;
49314;SDS011;36672;50.710;12.498;2023-01-10T02:17:17;2.15;;;1.60;;
49314;SDS011;36672;50.710;12.498;2023-01-10T02:22:30;4.22;;;1.83;;
49314;SDS011;36672;50.710;12.498;2023-01-10T02:30:45;2.80;;;1.85;;
49314;SDS011;36672;50.710;12.498;2023-01-10T02:33:30;3.92;;;2.00;;
49314;SDS011;36672;50.710;12.498;2023-01-10T02:36:25;4.47;;;1.67;;
49314;SDS011;36672;50.710;12.498;2023-01-10T02:44:19;2.25;;;1.50;;
49314;SDS011;36672;50.710;12.498;2023-01-10T02:46:52;3.00;;;1.50;;
49314;SDS011;36672;50.710;12.498;2023-01-10T02:49:17;2.30;;;1.45;;
49314;SDS011;36672;50.710;12.498;2023-01-10T02:51:43;2.22;;;1.50;;
49314;SDS011;36672;50.710;12.498;2023-01-10T02:54:12;4.22;;;1.60;;
49314;SDS011;36672;50.710;12.498;2023-01-10T03:08:19;1.95;;;1.38;;
49314;SDS011;36672;50.710;12.498;2023-01-10T03:11:05;4.35;;;1.70;;
49314;SDS011;36672;50.710;12.498;2023-01-10T03:13:34;2.80;;;1.90;;
49314;SDS011;36672;50.710;12.498;2023-01-10T03:16:23;2.80;;;1.65;;
49314;SDS011;36672;50.710;12.498;2023-01-10T03:18:53;4.00;;;1.42;;
49314;SDS011;36672;50.710;12.498;2023-01-10T03:21:24;3.03;;;1.85;;
49314;SDS011;36672;50.710;12.498;2023-01-10T03:23:52;2.17;;;1.40;;
49314;SDS011;36672;50.710;12.498;2023-01-10T03:27:06;1.73;;;1.40;;
49314;SDS011;36672;50.710;12.498;2023-01-10T03:29:19;2.38;;;1.60;;
49314;SDS011;36672;50.710;12.498;2023-01-10T03:31:49;2.92;;;1.58;;
49314;SDS011;36672;50.710;12.498;2023-01-10T03:34:19;4.30;;;1.65;;
49314;SDS011;36672;50.710;12.498;2023-01-10T03:36:51;1.85;;;1.30;;
49314;SDS011;36672;50.710;12.498;2023-01-10T03:42:40;3.10;;;1.70;;
49314;SDS011;36672;50.710;12.498;2023-01-10T03:45:32;1.73;;;1.58;;
49314;SDS011;36672;50.710;12.498;2023-01-10T03:48:06;2.85;;;1.70;;
49314;SDS011;36672;50.710;12.498;2023-01-10T03:50:36;2.35;;;1.50;;
49314;SDS011;36672;50.710;12.498;2023-01-10T03:53:02;3.10;;;1.58;;
49314;SDS011;36672;50.710;12.498;2023-01-10T03:55:30;2.75;;;1.55;;
49314;SDS011;36672;50.710;12.498;2023-01-10T03:57:57;2.45;;;1.48;;
49314;SDS011;36672;50.710;12.498;2023-01-10T04:00:22;2.78;;;1.52;;
49314;SDS011;36672;50.710;12.498;2023-01-10T04:02:48;2.53;;;1.48;;
49314;SDS011;36672;50.710;12.498;2023-01-10T04:05:14;5.53;;;1.75;;
49314;SDS011;36672;50.710;12.498;2023-01-10T04:07:39;2.90;;;1.65;;
49314;SDS011;36672;50.710;12.498;2023-01-10T04:10:05;3.08;;;1.48;;
49314;SDS011;36672;50.710;12.498;2023-01-10T04:12:31;6.35;;;1.73;;
49314;SDS011;36672;50.710;12.498;2023-01-10T04:14:56;2.67;;;1.63;;
49314;SDS011;36672;50.710;12.498;2023-01-10T04:17:22;2.95;;;1.60;;
49314;SDS011;36672;50.710;12.498;2023-01-10T04:19:47;2.70;;;1.80;;
49314;SDS011;36672;50.710;12.498;2023-01-10T04:22:13;2.47;;;1.92;;
49314;SDS011;36672;50.710;12.498;2023-01-10T04:24:38;4.57;;;1.80;;
49314;SDS011;36672;50.710;12.498;2023-01-10T04:27:04;5.75;;;1.90;;
49314;SDS011;36672;50.710;12.498;2023-01-10T04:29:30;2.85;;;2.03;;
49314;SDS011;36672;50.710;12.498;2023-01-10T04:31:55;2.45;;;1.70;;
49314;SDS011;36672;50.710;12.498;2023-01-10T04:34:21;4.13;;;1.70;;
49314;SDS011;36672;50.710;12.498;2023-01-10T04:36:47;2.58;;;2.00;;
49314;SDS011;36672;50.710;12.498;2023-01-10T04:39:13;3.03;;;2.05;;
49314;SDS011;36672;50.710;12.498;2023-01-10T04:41:39;3.35;;;1.90;;
49314;SDS011;36672;50.710;12.498;2023-01-10T04:44:04;3.40;;;1.98;;
49314;SDS011;36672;50.710;12.498;2023-01-10T04:46:30;3.65;;;1.90;;
49314;SDS011;36672;50.710;12.498;2023-01-10T04:48:55;3.20;;;2.08;;
49314;SDS011;36672;50.710;12.498;2023-01-10T04:51:22;2.60;;;1.90;;
49314;SDS011;36672;50.710;12.498;2023-01-10T04:53:49;2.25;;;1.90;;
49314;SDS011;36672;50.710;12.498;2023-01-10T04:56:16;3.28;;;1.63;;
49314;SDS011;36672;50.710;12.498;2023-01-10T04:58:43;3.20;;;2.15;;
49314;SDS011;36672;50.710;12.498;2023-01-10T05:01:09;4.45;;;2.03;;
49314;SDS011;36672;50.710;12.498;2023-01-10T05:03:37;2.97;;;1.92;;
49314;SDS011;36672;50.710;12.498;2023-01-10T05:06:03;3.17;;;2.08;;
49314;SDS011;36672;50.710;12.498;2023-01-10T05:08:29;3.15;;;2.10;;
49314;SDS011;36672;50.710;12.498;2023-01-10T05:10:54;4.65;;;1.73;;
49314;SDS011;36672;50.710;12.498;2023-01-10T05:13:19;3.80;;;2.25;;
49314;SDS011;36672;50.710;12.498;2023-01-10T05:15:45;5.15;;;2.53;;
49314;SDS011;36672;50.710;12.498;2023-01-10T05:18:10;4.72;;;2.00;;
49314;SDS011;36672;50.710;12.498;2023-01-10T05:20:35;4.32;;;2.08;;
49314;SDS011;36672;50.710;12.498;2023-01-10T05:23:01;3.42;;;2.15;;
49314;SDS011;36672;50.710;12.498;2023-01-10T05:25:26;3.30;;;2.15;;
49314;SDS011;36672;50.710;12.498;2023-01-10T05:27:51;5.32;;;2.30;;
49314;SDS011;36672;50.710;12.498;2023-01-10T05:30:17;4.07;;;2.10;;
49314;SDS011;36672;50.710;12.498;2023-01-10T05:32:42;2.15;;;1.80;;
49314;SDS011;36672;50.710;12.498;2023-01-10T05:35:08;4.13;;;2.30;;
49314;SDS011;36672;50.710;12.498;2023-01-10T05:37:34;3.20;;;2.10;;
49314;SDS011;36672;50.710;12.498;2023-01-10T05:39:59;4.00;;;2.00;;
49314;SDS011;36672;50.710;12.498;2023-01-10T05:42:25;3.65;;;2.22;;
49314;SDS011;36672;50.710;12.498;2023-01-10T05:44:50;3.17;;;2.28;;
49314;SDS011;36672;50.710;12.498;2023-01-10T05:47:15;2.78;;;2.15;;
49314;SDS011;36672;50.710;12.498;2023-01-10T05:49:41;3.30;;;2.00;;
49314;SDS011;36672;50.710;12.498;2023-01-10T05:52:06;4.07;;;2.05;;
49314;SDS011;36672;50.710;12.498;2023-01-10T05:54:31;2.92;;;1.80;;
49314;SDS011;36672;50.710;12.498;2023-01-10T05:56:57;3.63;;;1.88;;
49314;SDS011;36672;50.710;12.498;2023-01-10T05:59:22;3.05;;;1.70;;
49314;SDS011;36672;50.710;12.498;2023-01-10T06:01:47;2.58;;;2.00;;
49314;SDS011;36672;50.710;12.498;2023-01-10T06:04:13;2.75;;;1.88;;
49314;SDS011;36672;50.710;12.498;2023-01-10T06:06:38;3.17;;;1.90;;
49314;SDS011;36672;50.710;12.498;2023-01-10T06:09:04;2.50;;;1.45;;
49314;SDS011;36672;50.710;12.498;2023-01-10T06:11:29;2.40;;;1.63;;
49314;SDS011;36672;50.710;12.498;2023-01-10T06:13:55;3.42;;;1.60;;
49314;SDS011;36672;50.710;12.498;2023-01-10T06:16:21;2.83;;;1.80;;
49314;SDS011;36672;50.710;12.498;2023-01-10T06:18:47;3.00;;;1.95;;
49314;SDS011;36672;50.710;12.498;2023-01-10T06:21:12;3.15;;;1.92;;
49314;SDS011;36672;50.710;12.498;2023-01-10T06:23:38;2.08;;;1.88;;
49314;SDS011;36672;50.710;12.498;2023-01-10T06:26:03;2.70;;;1.60;;
49314;SDS011;36672;50.710;12.498;2023-01-10T06:28:29;2.38;;;1.70;;
49314;SDS011;36672;50.710;12.498;2023-01-10T06:30:54;3.80;;;1.70;;
49314;SDS011;36672;50.710;12.498;2023-01-10T06:33:20;2.67;;;1.80;;
49314;SDS011;36672;50.710;12.498;2023-01-10T06:35:45;4.53;;;2.20;;
49314;SDS011;36672;50.710;12.498;2023-01-10T06:38:12;2.13;;;1.60;;
49314;SDS011;36672;50.710;12.498;2023-01-10T06:40:38;2.60;;;1.65;;
49314;SDS011;36672;50.710;12.498;2023-01-10T06:43:03;3.58;;;2.00;;
49314;SDS011;36672;50.710;12.498;2023-01-10T06:45:29;2.20;;;1.70;;
49314;SDS011;36672;50.710;12.498;2023-01-10T06:47:54;2.00;;;1.50;;
49314;SDS011;36672;50.710;12.498;2023-01-10T06:50:19;2.63;;;1.67;;
49314;SDS011;36672;50.710;12.498;2023-01-10T06:52:45;2.63;;;1.60;;
49314;SDS011;36672;50.710;12.498;2023-01-10T06:55:11;4.20;;;1.55;;
49314;SDS011;36672;50.710;12.498;2023-01-10T06:57:36;3.78;;;1.98;;
49314;SDS011;36672;50.710;12.498;2023-01-10T07:00:03;3.08;;;1.77;;
49314;SDS011;36672;50.710;12.498;2023-01-10T07:02:30;3.65;;;1.70;;
49314;SDS011;36672;50.710;12.498;2023-01-10T07:04:55;5.45;;;2.33;;
49314;SDS011;36672;50.710;12.498;2023-01-10T07:07:21;5.43;;;1.80;;
49314;SDS011;36672;50.710;12.498;2023-01-10T07:09:46;3.55;;;1.65;;
49314;SDS011;36672;50.710;12.498;2023-01-10T07:12:11;3.38;;;1.90;;
49314;SDS011;36672;50.710;12.498;2023-01-10T07:14:37;5.00;;;1.80;;
49314;SDS011;36672;50.710;12.498;2023-01-10T07:17:02;2.22;;;1.80;;
49314;SDS011;36672;50.710;12.498;2023-01-10T07:19:28;2.63;;;1.63;;
49314;SDS011;36672;50.710;12.498;2023-01-10T07:21:54;2.50;;;1.63;;
49314;SDS011;36672;50.710;12.498;2023-01-10T07:24:19;4.07;;;2.28;;
49314;SDS011;36672;50.710;12.498;2023-01-10T07:26:44;3.15;;;1.60;;
49314;SDS011;36672;50.710;12.498;2023-01-10T07:29:10;3.83;;;1.90;;
49314;SDS011;36672;50.710;12.498;2023-01-10T07:31:35;3.78;;;1.90;;
49314;SDS011;36672;50.710;12.498;2023-01-10T07:34:00;7.40;;;1.75;;
49314;SDS011;36672;50.710;12.498;2023-01-10T07:36:26;2.58;;;1.88;;
49314;SDS011;36672;50.710;12.498;2023-01-10T07:38:51;3.30;;;2.00;;
49314;SDS011;36672;50.710;12.498;2023-01-10T07:41:17;3.42;;;1.63;;
49314;SDS011;36672;50.710;12.498;2023-01-10T07:43:43;2.72;;;1.75;;
49314;SDS011;36672;50.710;12.498;2023-01-10T07:46:09;2.92;;;1.80;;
49314;SDS011;36672;50.710;12.498;2023-01-10T07:48:36;4.70;;;1.83;;
49314;SDS011;36672;50.710;12.498;2023-01-10T07:51:03;4.95;;;2.10;;
49314;SDS011;36672;50.710;12.498;2023-01-10T07:53:29;2.80;;;1.85;;
49314;SDS011;36672;50.710;12.498;2023-01-10T07:55:58;4.88;;;2.00;;
49314;SDS011;36672;50.710;12.498;2023-01-10T07:58:25;2.92;;;2.08;;
49314;SDS011;36672;50.710;12.498;2023-01-10T08:00:55;3.75;;;2.05;;
49314;SDS011;36672;50.710;12.498;2023-01-10T08:03:25;3.40;;;2.10;;
49314;SDS011;36672;50.710;12.498;2023-01-10T08:06:00;3.15;;;1.60;;
49314;SDS011;36672;50.710;12.498;2023-01-10T08:08:27;4.75;;;2.15;;
49314;SDS011;36672;50.710;12.498;2023-01-10T08:10:53;6.15;;;2.47;;
49314;SDS011;36672;50.710;12.498;2023-01-10T08:13:19;3.67;;;2.30;;
49314;SDS011;36672;50.710;12.498;2023-01-10T08:15:44;3.88;;;1.70;;
49314;SDS011;36672;50.710;12.498;2023-01-10T08:18:11;3.00;;;1.98;;
49314;SDS011;36672;50.710;12.498;2023-01-10T08:20:36;3.25;;;2.03;;
49314;SDS011;36672;50.710;12.498;2023-01-10T08:23:02;3.75;;;1.77;;
49314;SDS011;36672;50.710;12.498;2023-01-10T08:25:28;4.80;;;2.15;;
49314;SDS011;36672;50.710;12.498;2023-01-10T08:27:53;5.85;;;2.10;;
49314;SDS011;36672;50.710;12.498;2023-01-10T08:30:18;3.95;;;1.90;;
49314;SDS011;36672;50.710;12.498;2023-01-10T08:32:44;4.50;;;1.65;;
49314;SDS011;36672;50.710;12.498;2023-01-10T08:35:09;5.20;;;1.70;;
49314;SDS011;36672;50.710;12.498;2023-01-10T08:37:35;3.13;;;1.60;;
49314;SDS011;36672;50.710;12.498;2023-01-10T08:40:00;6.05;;;1.42;;
49314;SDS011;36672;50.710;12.498;2023-01-10T08:42:26;4.10;;;1.58;;
49314;SDS011;36672;50.710;12.498;2023-01-10T08:44:51;3.05;;;1.40;;
49314;SDS011;36672;50.710;12.498;2023-01-10T08:47:18;7.20;;;1.65;;
49314;SDS011;36672;50.710;12.498;2023-01-10T08:49:43;6.45;;;1.85;;
49314;SDS011;36672;50.710;12.498;2023-01-10T08:52:11;2.85;;;1.38;;
49314;SDS011;36672;50.710;12.498;2023-01-10T08:54:36;5.72;;;1.65;;
49314;SDS011;36672;50.710;12.498;2023-01-10T08:57:01;3.70;;;1.52;;
49314;SDS011;36672;50.710;12.498;2023-01-10T08:59:27;4.30;;;1.65;;
49314;SDS011;36672;50.710;12.498;2023-01-10T09:01:52;6.47;;;1.40;;
49314;SDS011;36672;50.710;12.498;2023-01-10T09:04:17;5.35;;;1.52;;
49314;SDS011;36672;50.710;12.498;2023-01-10T09:06:43;2.50;;;1.33;;
49314;SDS011;36672;50.710;12.498;2023-01-10T09:09:08;6.63;;;1.42;;
49314;SDS011;36672;50.710;12.498;2023-01-10T09:11:34;6.25;;;1.77;;
49314;SDS011;36672;50.710;12.498;2023-01-10T09:14:00;5.50;;;1.55;;
49314;SDS011;36672;50.710;12.498;2023-01-10T09:16:25;5.53;;;1.60;;
49314;SDS011;36672;50.710;12.498;2023-01-10T09:18:50;3.88;;;1.38;;
49314;SDS011;36672;50.710;12.498;2023-01-10T09:21:16;3.88;;;1.52;;
49314;SDS011;36672;50.710;12.498;2023-01-10T09:23:41;3.30;;;1.60;;
49314;SDS011;36672;50.710;12.498;2023-01-10T09:26:07;6.25;;;1.60;;
49314;SDS011;36672;50.710;12.498;2023-01-10T09:28:33;4.75;;;1.52;;
49314;SDS011;36672;50.710;12.498;2023-01-10T09:30:58;3.42;;;1.48;;
49314;SDS011;36672;50.710;12.498;2023-01-10T09:33:25;4.47;;;1.35;;
49314;SDS011;36672;50.710;12.498;2023-01-10T09:35:50;4.75;;;1.33;;
49314;SDS011;36672;50.710;12.498;2023-01-10T09:38:16;4.05;;;1.38;;
49314;SDS011;36672;50.710;12.498;2023-01-10T09:43:15;8.50;;;1.52;;
49314;SDS011;36672;50.710;12.498;2023-01-10T09:45:57;5.65;;;1.35;;
49314;SDS011;36672;50.710;12.498;2023-01-10T09:51:42;6.35;;;1.80;;
49314;SDS011;36672;50.710;12.498;2023-01-10T09:54:18;8.63;;;2.13;;
49314;SDS011;36672;50.710;12.498;2023-01-10T09:56:50;3.50;;;1.58;;
49314;SDS011;36672;50.710;12.498;2023-01-10T09:59:20;6.40;;;1.45;;
49314;SDS011;36672;50.710;12.498;2023-01-10T10:01:54;5.68;;;1.55;;
49314;SDS011;36672;50.710;12.498;2023-01-10T10:04:32;4.90;;;1.27;;
49314;SDS011;36672;50.710;12.498;2023-01-10T10:07:00;3.55;;;1.50;;
49314;SDS011;36672;50.710;12.498;2023-01-10T10:09:29;3.95;;;1.60;;
49314;SDS011;36672;50.710;12.498;2023-01-10T10:17:59;13.93;;;2.17;;
49314;SDS011;36672;50.710;12.498;2023-01-10T10:20:44;8.18;;;1.75;;
49314;SDS011;36672;50.710;12.498;2023-01-10T10:26:19;4.30;;;1.40;;
49314;SDS011;36672;50.710;12.498;2023-01-10T10:34:48;2.85;;;1.10;;
49314;SDS011;36672;50.710;12.498;2023-01-10T10:37:22;6.70;;;1.70;;
49314;SDS011;36672;50.710;12.498;2023-01-10T10:40:14;6.68;;;1.42;;
49314;SDS011;36672;50.710;12.498;2023-01-10T10:42:43;4.43;;;1.20;;
49314;SDS011;36672;50.710;12.498;2023-01-10T10:45:19;8.02;;;1.20;;
49314;SDS011;36672;50.710;12.498;2023-01-10T10:47:48;6.22;;;2.30;;
49314;SDS011;36672;50.710;12.498;2023-01-10T10:52:54;5.78;;;1.23;;
49314;SDS011;36672;50.710;12.498;2023-01-10T10:55:21;4.28;;;1.50;;
49314;SDS011;36672;50.710;12.498;2023-01-10T10:57:52;2.50;;;1.00;;
49314;SDS011;36672;50.710;12.498;2023-01-10T11:00:18;4.70;;;0.90;;
49314;SDS011;36672;50.710;12.498;2023-01-10T11:02:48;4.18;;;1.02;;
49314;SDS011;36672;50.710;12.498;2023-01-10T11:05:18;3.00;;;1.08;;
49314;SDS011;36672;50.710;12.498;2023-01-10T11:07:47;3.88;;;1.17;;
49314;SDS011;36672;50.710;12.498;2023-01-10T11:10:20;3.65;;;0.98;;
49314;SDS011;36672;50.710;12.498;2023-01-10T11:13:01;4.68;;;1.27;;
49314;SDS011;36672;50.710;12.498;2023-01-10T11:18:10;4.10;;;1.30;;
49314;SDS011;36672;50.710;12.498;2023-01-10T11:20:35;3.85;;;1.25;;
49314;SDS011;36672;50.710;12.498;2023-01-10T11:23:01;3.78;;;1.10;;
49314;SDS011;36672;50.710;12.498;2023-01-10T11:25:27;6.75;;;1.20;;
49314;SDS011;36672;50.710;12.498;2023-01-10T11:27:53;3.97;;;1.08;;
49314;SDS011;36672;50.710;12.498;2023-01-10T11:30:22;7.10;;;1.10;;
49314;SDS011;36672;50.710;12.498;2023-01-10T11:33:01;2.67;;;1.13;;
49314;SDS011;36672;50.710;12.498;2023-01-10T11:35:39;4.55;;;1.30;;
49314;SDS011;36672;50.710;12.498;2023-01-10T11:38:16;4.68;;;1.13;;
49314;SDS011;36672;50.710;12.498;2023-01-10T11:40:57;3.35;;;1.02;;
49314;SDS011;36672;50.710;12.498;2023-01-10T11:43:40;3.78;;;1.20;;
49314;SDS011;36672;50.710;12.498;2023-01-10T11:46:11;3.80;;;1.25;;
49314;SDS011;36672;50.710;12.498;2023-01-10T11:48:48;4.07;;;1.15;;
49314;SDS011;36672;50.710;12.498;2023-01-10T11:51:24;4.78;;;1.02;;
49314;SDS011;36672;50.710;12.498;2023-01-10T11:56:39;3.15;;;1.30;;
49314;SDS011;36672;50.710;12.498;2023-01-10T11:59:16;10.88;;;1.52;;
49314;SDS011;36672;50.710;12.498;2023-01-10T12:01:47;6.45;;;1.27;;
49314;SDS011;36672;50.710;12.498;2023-01-10T12:04:17;4.65;;;1.25;;
49314;SDS011;36672;50.710;12.498;2023-01-10T12:06:45;2.70;;;1.10;;
49314;SDS011;36672;50.710;12.498;2023-01-10T12:14:55;7.20;;;1.70;;
49314;SDS011;36672;50.710;12.498;2023-01-10T12:17:30;4.72;;;1.20;;
49314;SDS011;36672;50.710;12.498;2023-01-10T12:19:58;3.75;;;0.95;;
49314;SDS011;36672;50.710;12.498;2023-01-10T12:24:57;3.60;;;1.10;;
49314;SDS011;36672;50.710;12.498;2023-01-10T12:27:24;3.72;;;1.13;;
49314;SDS011;36672;50.710;12.498;2023-01-10T12:32:58;4.78;;;1.23;;
49314;SDS011;36672;50.710;12.498;2023-01-10T12:41:15;2.47;;;1.20;;
49314;SDS011;36672;50.710;12.498;2023-01-10T12:44:18;3.97;;;1.50;;
49314;SDS011;36672;50.710;12.498;2023-01-10T12:46:49;5.40;;;1.10;;
49314;SDS011;36672;50.710;12.498;2023-01-10T12:49:20;26.23;;;2.50;;
49314;SDS011;36672;50.710;12.498;2023-01-10T12:51:50;2.38;;;1.08;;
49314;SDS011;36672;50.710;12.498;2023-01-10T12:54:19;3.00;;;1.20;;
49314;SDS011;36672;50.710;12.498;2023-01-10T12:56:48;4.32;;;1.10;;
49314;SDS011;36672;50.710;12.498;2023-01-10T12:59:19;4.22;;;1.20;;
49314;SDS011;36672;50.710;12.498;2023-01-10T13:01:51;2.55;;;1.00;;
49314;SDS011;36672;50.710;12.498;2023-01-10T13:04:20;3.67;;;0.90;;
49314;SDS011;36672;50.710;12.498;2023-01-10T13:06:48;8.23;;;1.20;;
49314;SDS011;36672;50.710;12.498;2023-01-10T13:09:16;3.85;;;1.15;;
49314;SDS011;36672;50.710;12.498;2023-01-10T13:12:02;3.53;;;1.10;;
49314;SDS011;36672;50.710;12.498;2023-01-10T13:14:51;2.58;;;1.38;;
49314;SDS011;36672;50.710;12.498;2023-01-10T13:22:44;2.15;;;1.17;;
49314;SDS011;36672;50.710;12.498;2023-01-10T13:25:28;2.72;;;1.05;;
49314;SDS011;36672;50.710;12.498;2023-01-10T13:30:42;4.47;;;1.50;;
49314;SDS011;36672;50.710;12.498;2023-01-10T13:35:48;4.03;;;1.35;;
49314;SDS011;36672;50.710;12.498;2023-01-10T13:38:16;3.80;;;1.20;;
49314;SDS011;36672;50.710;12.498;2023-01-10T13:43:59;4.43;;;1.92;;
49314;SDS011;36672;50.710;12.498;2023-01-10T13:51:30;4.85;;;1.58;;
49314;SDS011;36672;50.710;12.498;2023-01-10T13:54:02;2.83;;;1.40;;
49314;SDS011;36672;50.710;12.498;2023-01-10T13:56:40;4.63;;;1.65;;
49314;SDS011;36672;50.710;12.498;2023-01-10T13:59:14;3.35;;;1.30;;
49314;SDS011;36672;50.710;12.498;2023-01-10T14:02:20;3.67;;;1.20;;
49314;SDS011;36672;50.710;12.498;2023-01-10T14:05:00;5.82;;;1.10;;
49314;SDS011;36672;50.710;12.498;2023-01-10T14:08:01;1.60;;;0.90;;
49314;SDS011;36672;50.710;12.498;2023-01-10T14:12:49;3.65;;;1.10;;
49314;SDS011;36672;50.710;12.498;2023-01-10T14:15:26;2.78;;;1.00;;
49314;SDS011;36672;50.710;12.498;2023-01-10T14:17:59;3.17;;;1.27;;
49314;SDS011;36672;50.710;12.498;2023-01-10T14:20:43;4.18;;;1.30;;
49314;SDS011;36672;50.710;12.498;2023-01-10T14:25:41;3.17;;;1.30;;
49314;SDS011;36672;50.710;12.498;2023-01-10T14:28:27;3.80;;;1.02;;
49314;SDS011;36672;50.710;12.498;2023-01-10T14:33:29;1.70;;;0.93;;
49314;SDS011;36672;50.710;12.498;2023-01-10T14:35:57;2.15;;;1.00;;
49314;SDS011;36672;50.710;12.498;2023-01-10T14:38:27;2.80;;;1.00;;
49314;SDS011;36672;50.710;12.498;2023-01-10T14:40:59;2.25;;;0.90;;
49314;SDS011;36672;50.710;12.498;2023-01-10T14:43:29;2.15;;;0.70;;
49314;SDS011;36672;50.710;12.498;2023-01-10T14:46:04;2.65;;;1.00;;
49314;SDS011;36672;50.710;12.498;2023-01-10T14:48:39;2.47;;;0.95;;
49314;SDS011;36672;50.710;12.498;2023-01-10T14:51:21;2.00;;;0.95;;
49314;SDS011;36672;50.710;12.498;2023-01-10T14:54:00;2.95;;;1.08;;
49314;SDS011;36672;50.710;12.498;2023-01-10T14:56:34;1.45;;;0.98;;
49314;SDS011;36672;50.710;12.498;2023-01-10T15:01:52;4.40;;;1.17;;
49314;SDS011;36672;50.710;12.498;2023-01-10T15:04:21;3.25;;;1.00;;
49314;SDS011;36672;50.710;12.498;2023-01-10T15:09:39;5.68;;;1.25;;
49314;SDS011;36672;50.710;12.498;2023-01-10T15:12:12;2.92;;;1.13;;
49314;SDS011;36672;50.710;12.498;2023-01-10T15:14:40;3.10;;;1.15;;
49314;SDS011;36672;50.710;12.498;2023-01-10T15:17:06;2.60;;;1.30;;
49314;SDS011;36672;50.710;12.498;2023-01-10T15:19:41;2.83;;;1.10;;
49314;SDS011;36672;50.710;12.498;2023-01-10T15:22:21;3.70;;;1.10;;
49314;SDS011;36672;50.710;12.498;2023-01-10T15:25:35;4.88;;;1.08;;
49314;SDS011;36672;50.710;12.498;2023-01-10T15:27:44;3.55;;;1.20;;
49314;SDS011;36672;50.710;12.498;2023-01-10T15:30:20;4.30;;;1.13;;
49314;SDS011;36672;50.710;12.498;2023-01-10T15:32:48;4.38;;;1.40;;
49314;SDS011;36672;50.710;12.498;2023-01-10T15:35:15;3.80;;;1.40;;
49314;SDS011;36672;50.710;12.498;2023-01-10T15:37:44;4.97;;;1.75;;
49314;SDS011;36672;50.710;12.498;2023-01-10T15:40:20;3.78;;;1.30;;
49314;SDS011;36672;50.710;12.498;2023-01-10T15:43:08;4.97;;;1.55;;
49314;SDS011;36672;50.710;12.498;2023-01-10T15:45:45;4.97;;;1.38;;
49314;SDS011;36672;50.710;12.498;2023-01-10T15:51:14;5.13;;;1.75;;
49314;SDS011;36672;50.710;12.498;2023-01-10T15:56:19;3.83;;;1.77;;
49314;SDS011;36672;50.710;12.498;2023-01-10T15:58:50;5.90;;;1.75;;
49314;SDS011;36672;50.710;12.498;2023-01-10T16:01:16;7.32;;;2.03;;
49314;SDS011;36672;50.710;12.498;2023-01-10T16:03:46;4.10;;;2.00;;
49314;SDS011;36672;50.710;12.498;2023-01-10T16:06:18;4.40;;;2.08;;
49314;SDS011;36672;50.710;12.498;2023-01-10T16:08:47;4.30;;;2.30;;
49314;SDS011;36672;50.710;12.498;2023-01-10T16:11:19;4.97;;;2.00;;
49314;SDS011;36672;50.710;12.498;2023-01-10T16:14:06;8.85;;;2.30;;
49314;SDS011;36672;50.710;12.498;2023-01-10T16:16:31;5.45;;;2.80;;
49314;SDS011;36672;50.710;12.498;2023-01-10T16:18:57;6.22;;;3.03;;
49314;SDS011;36672;50.710;12.498;2023-01-10T16:21:23;4.50;;;2.22;;
49314;SDS011;36672;50.710;12.498;2023-01-10T16:23:53;7.22;;;1.80;;
49314;SDS011;36672;50.710;12.498;2023-01-10T16:26:18;5.95;;;1.80;;
49314;SDS011;36672;50.710;12.498;2023-01-10T16:28:43;8.05;;;2.08;;
49314;SDS011;36672;50.710;12.498;2023-01-10T16:31:09;7.47;;;2.35;;
49314;SDS011;36672;50.710;12.498;2023-01-10T16:33:36;6.57;;;2.33;;
49314;SDS011;36672;50.710;12.498;2023-01-10T16:36:02;5.22;;;2.10;;
49314;SDS011;36672;50.710;12.498;2023-01-10T16:38:28;7.43;;;2.20;;
49314;SDS011;36672;50.710;12.498;2023-01-10T16:40:58;6.45;;;2.10;;